sensor_id;sensor_type;location;lat;lon;timestamp;pressure;altitude;pressure_sealevel;temperature;humidity
24752;BME280;27246;52.376;4.628;2022-08-05T00:00:52;101508.09;;;20.33;65.22
24752;BME280;27246;52.376;4.628;2022-08-05T00:05:54;101496.13;;;20.26;65.26
24752;BME280;27246;52.376;4.628;2022-08-05T00:11:15;101510.38;;;20.43;64.90
24752;BME280;27246;52.376;4.628;2022-08-05T00:16:30;101503.56;;;20.69;63.69
24752;BME280;27246;52.376;4.628;2022-08-05T00:21:52;101503.13;;;20.72;63.69
24752;BME280;27246;52.376;4.628;2022-08-05T00:26:54;101504.19;;;20.71;63.88
24752;BME280;27246;52.376;4.628;2022-08-05T00:31:59;101514.09;;;20.85;63.46
24752;BME280;27246;52.376;4.628;2022-08-05T00:37:16;101514.09;;;21.04;63.47
24752;BME280;27246;52.376;4.628;2022-08-05T00:42:34;101513.25;;;20.85;63.64
24752;BME280;27246;52.376;4.628;2022-08-05T00:47:37;101506.25;;;20.64;64.04
24752;BME280;27246;52.376;4.628;2022-08-05T00:52:59;101512.81;;;21.30;61.76
24752;BME280;27246;52.376;4.628;2022-08-05T00:58:02;101509.22;;;20.81;63.18
24752;BME280;27246;52.376;4.628;2022-08-05T01:03:09;101494.25;;;20.56;64.14
24752;BME280;27246;52.376;4.628;2022-08-05T01:08:23;101508.81;;;20.47;64.58
24752;BME280;27246;52.376;4.628;2022-08-05T01:14:03;101500.47;;;20.40;65.02
24752;BME280;27246;52.376;4.628;2022-08-05T01:30:47;101521.13;;;20.46;64.36
24752;BME280;27246;52.376;4.628;2022-08-05T01:35:57;101526.78;;;20.39;64.42
24752;BME280;27246;52.376;4.628;2022-08-05T01:41:00;101526.50;;;20.41;64.43
24752;BME280;27246;52.376;4.628;2022-08-05T01:46:07;101542.22;;;20.23;64.68
24752;BME280;27246;52.376;4.628;2022-08-05T01:51:34;101541.28;;;20.11;64.95
24752;BME280;27246;52.376;4.628;2022-08-05T01:56:38;101548.06;;;20.22;64.51
24752;BME280;27246;52.376;4.628;2022-08-05T02:02:02;101537.31;;;20.18;64.35
24752;BME280;27246;52.376;4.628;2022-08-05T02:07:11;101538.72;;;20.09;64.67
24752;BME280;27246;52.376;4.628;2022-08-05T02:12:52;101544.22;;;19.97;64.91
24752;BME280;27246;52.376;4.628;2022-08-05T02:17:58;101538.00;;;19.95;64.65
24752;BME280;27246;52.376;4.628;2022-08-05T02:23:25;101543.06;;;20.05;64.46
24752;BME280;27246;52.376;4.628;2022-08-05T02:28:37;101530.69;;;19.94;64.47
24752;BME280;27246;52.376;4.628;2022-08-05T02:33:50;101525.09;;;19.94;64.02
24752;BME280;27246;52.376;4.628;2022-08-05T02:39:06;101522.53;;;19.93;64.01
24752;BME280;27246;52.376;4.628;2022-08-05T02:44:36;101521.91;;;19.91;64.36
24752;BME280;27246;52.376;4.628;2022-08-05T02:49:40;101515.72;;;20.07;63.69
24752;BME280;27246;52.376;4.628;2022-08-05T02:55:08;101515.88;;;20.12;63.99
24752;BME280;27246;52.376;4.628;2022-08-05T03:00:11;101509.19;;;20.13;63.27
24752;BME280;27246;52.376;4.628;2022-08-05T03:05:14;101510.88;;;20.14;63.10
24752;BME280;27246;52.376;4.628;2022-08-05T03:10:16;101512.31;;;20.24;62.48
24752;BME280;27246;52.376;4.628;2022-08-05T03:15:25;101512.59;;;19.97;62.94
24752;BME280;27246;52.376;4.628;2022-08-05T03:20:28;101511.81;;;20.08;62.32
24752;BME280;27246;52.376;4.628;2022-08-05T03:25:31;101520.47;;;20.07;62.11
24752;BME280;27246;52.376;4.628;2022-08-05T03:30:54;101529.53;;;20.02;61.53
24752;BME280;27246;52.376;4.628;2022-08-05T03:35:58;101526.78;;;19.77;62.46
24752;BME280;27246;52.376;4.628;2022-08-05T03:41:00;101532.59;;;19.75;62.07
24752;BME280;27246;52.376;4.628;2022-08-05T03:46:11;101554.47;;;19.53;62.35
24752;BME280;27246;52.376;4.628;2022-08-05T03:57:11;101536.41;;;19.81;61.68
24752;BME280;27246;52.376;4.628;2022-08-05T04:02:36;101534.75;;;19.48;62.07
24752;BME280;27246;52.376;4.628;2022-08-05T04:08:00;101536.28;;;19.44;62.42
24752;BME280;27246;52.376;4.628;2022-08-05T04:13:05;101539.53;;;19.41;62.63
24752;BME280;27246;52.376;4.628;2022-08-05T04:18:06;101542.03;;;19.24;62.73
24752;BME280;27246;52.376;4.628;2022-08-05T04:23:10;101535.97;;;19.27;63.00
24752;BME280;27246;52.376;4.628;2022-08-05T04:28:13;101534.41;;;19.06;63.68
24752;BME280;27246;52.376;4.628;2022-08-05T04:33:40;101524.97;;;19.01;63.80
24752;BME280;27246;52.376;4.628;2022-08-05T04:39:03;101541.31;;;19.04;63.63
24752;BME280;27246;52.376;4.628;2022-08-05T04:44:06;101540.91;;;18.93;63.90
24752;BME280;27246;52.376;4.628;2022-08-05T04:49:10;101532.78;;;18.85;64.40
24752;BME280;27246;52.376;4.628;2022-08-05T04:54:15;101527.94;;;18.74;64.98
24752;BME280;27246;52.376;4.628;2022-08-05T04:59:18;101531.78;;;18.73;64.94
24752;BME280;27246;52.376;4.628;2022-08-05T05:04:39;101534.59;;;18.66;65.17
24752;BME280;27246;52.376;4.628;2022-08-05T05:09:48;101535.00;;;18.70;65.11
24752;BME280;27246;52.376;4.628;2022-08-05T05:14:51;101534.94;;;18.83;64.43
24752;BME280;27246;52.376;4.628;2022-08-05T05:19:53;101550.38;;;18.92;63.96
24752;BME280;27246;52.376;4.628;2022-08-05T05:24:57;101542.78;;;19.06;63.65
24752;BME280;27246;52.376;4.628;2022-08-05T05:30:02;101532.66;;;19.12;63.33
24752;BME280;27246;52.376;4.628;2022-08-05T05:35:05;101544.31;;;19.02;63.69
24752;BME280;27246;52.376;4.628;2022-08-05T05:40:09;101557.16;;;19.10;63.67
24752;BME280;27246;52.376;4.628;2022-08-05T05:45:12;101558.00;;;19.42;63.02
24752;BME280;27246;52.376;4.628;2022-08-05T05:50:16;101549.97;;;19.52;62.42
24752;BME280;27246;52.376;4.628;2022-08-05T05:55:20;101558.16;;;19.22;63.16
24752;BME280;27246;52.376;4.628;2022-08-05T06:00:22;101557.28;;;19.22;63.14
24752;BME280;27246;52.376;4.628;2022-08-05T06:05:32;101560.69;;;19.24;62.68
24752;BME280;27246;52.376;4.628;2022-08-05T06:10:33;101561.38;;;19.19;61.68
24752;BME280;27246;52.376;4.628;2022-08-05T06:15:49;101556.56;;;19.33;61.65
24752;BME280;27246;52.376;4.628;2022-08-05T06:21:10;101568.28;;;19.48;59.55
24752;BME280;27246;52.376;4.628;2022-08-05T06:26:19;101582.88;;;19.50;59.44
24752;BME280;27246;52.376;4.628;2022-08-05T06:31:47;101587.78;;;19.55;59.88
24752;BME280;27246;52.376;4.628;2022-08-05T06:36:51;101588.84;;;19.86;60.23
24752;BME280;27246;52.376;4.628;2022-08-05T06:42:00;101578.00;;;19.96;59.65
24752;BME280;27246;52.376;4.628;2022-08-05T06:47:05;101585.31;;;19.97;58.68
24752;BME280;27246;52.376;4.628;2022-08-05T06:52:10;101582.66;;;20.02;56.84
24752;BME280;27246;52.376;4.628;2022-08-05T06:57:32;101587.31;;;19.90;56.65
24752;BME280;27246;52.376;4.628;2022-08-05T07:02:54;101598.72;;;19.88;56.30
24752;BME280;27246;52.376;4.628;2022-08-05T07:07:56;101603.38;;;19.94;56.00
24752;BME280;27246;52.376;4.628;2022-08-05T07:12:58;101603.69;;;20.11;54.56
24752;BME280;27246;52.376;4.628;2022-08-05T07:18:38;101611.06;;;20.49;51.31
24752;BME280;27246;52.376;4.628;2022-08-05T07:23:48;101622.19;;;20.31;50.91
24752;BME280;27246;52.376;4.628;2022-08-05T07:28:52;101634.88;;;20.33;50.50
24752;BME280;27246;52.376;4.628;2022-08-05T07:33:54;101634.94;;;20.27;48.60
24752;BME280;27246;52.376;4.628;2022-08-05T07:39:02;101631.06;;;20.28;48.53
24752;BME280;27246;52.376;4.628;2022-08-05T07:44:07;101639.50;;;20.46;48.14
24752;BME280;27246;52.376;4.628;2022-08-05T07:49:19;101651.72;;;20.27;49.52
24752;BME280;27246;52.376;4.628;2022-08-05T07:54:22;101660.19;;;20.20;48.94
24752;BME280;27246;52.376;4.628;2022-08-05T07:59:32;101658.31;;;20.14;48.89
24752;BME280;27246;52.376;4.628;2022-08-05T08:04:41;101665.31;;;19.98;49.03
24752;BME280;27246;52.376;4.628;2022-08-05T08:09:45;101672.94;;;19.91;49.92
24752;BME280;27246;52.376;4.628;2022-08-05T08:14:48;101683.19;;;19.97;47.38
24752;BME280;27246;52.376;4.628;2022-08-05T08:19:59;101677.13;;;20.00;48.33
24752;BME280;27246;52.376;4.628;2022-08-05T08:25:21;101694.09;;;20.05;47.36
24752;BME280;27246;52.376;4.628;2022-08-05T08:30:43;101694.31;;;20.04;46.87
24752;BME280;27246;52.376;4.628;2022-08-05T08:35:50;101700.13;;;20.02;43.48
24752;BME280;27246;52.376;4.628;2022-08-05T08:40:59;101695.44;;;20.03;44.11
24752;BME280;27246;52.376;4.628;2022-08-05T08:46:05;101710.03;;;20.05;45.44
24752;BME280;27246;52.376;4.628;2022-08-05T08:51:10;101711.31;;;20.09;45.41
24752;BME280;27246;52.376;4.628;2022-08-05T08:56:32;101722.06;;;20.05;44.44
24752;BME280;27246;52.376;4.628;2022-08-05T09:01:35;101728.09;;;20.02;44.09
24752;BME280;27246;52.376;4.628;2022-08-05T09:06:43;101731.59;;;19.97;44.06
24752;BME280;27246;52.376;4.628;2022-08-05T09:11:50;101739.78;;;19.92;45.23
24752;BME280;27246;52.376;4.628;2022-08-05T09:17:07;101748.88;;;19.88;45.41
24752;BME280;27246;52.376;4.628;2022-08-05T09:28:22;101754.25;;;19.89;47.02
24752;BME280;27246;52.376;4.628;2022-08-05T09:33:49;101763.03;;;19.93;46.15
24752;BME280;27246;52.376;4.628;2022-08-05T09:39:00;101766.91;;;19.92;46.47
24752;BME280;27246;52.376;4.628;2022-08-05T09:44:02;101779.66;;;19.81;47.60
24752;BME280;27246;52.376;4.628;2022-08-05T09:49:21;101778.78;;;19.87;48.12
24752;BME280;27246;52.376;4.628;2022-08-05T09:55:07;101781.09;;;19.97;48.10
24752;BME280;27246;52.376;4.628;2022-08-05T10:00:29;101794.84;;;20.30;48.55
24752;BME280;27246;52.376;4.628;2022-08-05T10:05:32;101796.38;;;20.26;48.37
24752;BME280;27246;52.376;4.628;2022-08-05T10:17:13;101812.22;;;20.07;48.30
24752;BME280;27246;52.376;4.628;2022-08-05T10:22:34;101816.81;;;19.88;47.64
24752;BME280;27246;52.376;4.628;2022-08-05T10:27:43;101826.47;;;19.99;48.48
24752;BME280;27246;52.376;4.628;2022-08-05T10:33:05;101834.66;;;19.94;49.17
24752;BME280;27246;52.376;4.628;2022-08-05T10:38:18;101837.66;;;19.99;49.17
24752;BME280;27246;52.376;4.628;2022-08-05T10:43:27;101846.47;;;19.96;49.67
24752;BME280;27246;52.376;4.628;2022-08-05T10:48:39;101844.31;;;19.98;49.03
24752;BME280;27246;52.376;4.628;2022-08-05T10:53:59;101853.34;;;20.00;49.53
24752;BME280;27246;52.376;4.628;2022-08-05T10:59:26;101861.09;;;20.05;49.32
24752;BME280;27246;52.376;4.628;2022-08-05T11:04:53;101867.53;;;20.05;48.81
24752;BME280;27246;52.376;4.628;2022-08-05T11:09:55;101872.22;;;20.11;48.56
24752;BME280;27246;52.376;4.628;2022-08-05T11:15:20;101879.47;;;20.26;49.19
24752;BME280;27246;52.376;4.628;2022-08-05T11:36:03;101904.34;;;20.47;48.28
24752;BME280;27246;52.376;4.628;2022-08-05T11:46:52;101913.84;;;20.33;48.12
24752;BME280;27246;52.376;4.628;2022-08-05T11:51:59;101917.25;;;20.48;48.13
24752;BME280;27246;52.376;4.628;2022-08-05T11:57:03;101918.78;;;20.37;46.25
24752;BME280;27246;52.376;4.628;2022-08-05T12:02:13;101929.28;;;20.49;47.28
24752;BME280;27246;52.376;4.628;2022-08-05T12:07:24;101931.47;;;20.40;47.02
24752;BME280;27246;52.376;4.628;2022-08-05T12:12:46;101935.09;;;20.54;47.49
24752;BME280;27246;52.376;4.628;2022-08-05T12:18:00;101926.13;;;21.27;44.70
24752;BME280;27246;52.376;4.628;2022-08-05T12:23:11;101934.19;;;21.42;44.62
24752;BME280;27246;52.376;4.628;2022-08-05T12:28:29;101944.97;;;21.82;43.48
24752;BME280;27246;52.376;4.628;2022-08-05T12:33:32;101955.53;;;22.05;43.09
24752;BME280;27246;52.376;4.628;2022-08-05T12:38:37;101960.13;;;22.18;42.31
24752;BME280;27246;52.376;4.628;2022-08-05T12:43:53;101958.72;;;22.58;42.60
24752;BME280;27246;52.376;4.628;2022-08-05T12:49:10;101959.31;;;22.78;40.83
24752;BME280;27246;52.376;4.628;2022-08-05T12:59:30;101977.03;;;22.30;42.56
24752;BME280;27246;52.376;4.628;2022-08-05T13:04:54;101992.59;;;22.44;44.39
24752;BME280;27246;52.376;4.628;2022-08-05T13:09:57;101990.78;;;21.76;50.22
24752;BME280;27246;52.376;4.628;2022-08-05T13:15:01;101997.09;;;21.71;51.39
24752;BME280;27246;52.376;4.628;2022-08-05T13:20:12;102005.13;;;21.86;49.16
24752;BME280;27246;52.376;4.628;2022-08-05T13:25:24;102000.88;;;22.02;47.87
24752;BME280;27246;52.376;4.628;2022-08-05T13:30:47;102008.75;;;22.12;48.35
24752;BME280;27246;52.376;4.628;2022-08-05T13:35:52;102023.34;;;22.21;47.95
24752;BME280;27246;52.376;4.628;2022-08-05T13:41:02;102016.94;;;22.32;48.12
24752;BME280;27246;52.376;4.628;2022-08-05T13:46:04;102029.66;;;22.16;48.96
24752;BME280;27246;52.376;4.628;2022-08-05T13:51:07;102045.88;;;22.32;47.14
24752;BME280;27246;52.376;4.628;2022-08-05T13:56:09;102049.31;;;22.34;47.14
24752;BME280;27246;52.376;4.628;2022-08-05T14:01:20;102045.16;;;22.55;44.62
24752;BME280;27246;52.376;4.628;2022-08-05T14:06:36;102050.44;;;22.82;45.12
24752;BME280;27246;52.376;4.628;2022-08-05T14:11:38;102060.16;;;22.49;45.52
24752;BME280;27246;52.376;4.628;2022-08-05T14:17:02;102066.22;;;22.65;45.58
24752;BME280;27246;52.376;4.628;2022-08-05T14:22:08;102072.16;;;22.20;45.82
24752;BME280;27246;52.376;4.628;2022-08-05T14:27:13;102073.41;;;22.42;44.32
24752;BME280;27246;52.376;4.628;2022-08-05T14:32:18;102084.00;;;22.22;42.90
24752;BME280;27246;52.376;4.628;2022-08-05T14:37:28;102089.94;;;22.32;42.14
24752;BME280;27246;52.376;4.628;2022-08-05T14:42:48;102094.84;;;22.55;42.64
24752;BME280;27246;52.376;4.628;2022-08-05T14:47:52;102088.16;;;22.56;39.58
24752;BME280;27246;52.376;4.628;2022-08-05T14:53:04;102092.66;;;22.39;39.95
24752;BME280;27246;52.376;4.628;2022-08-05T14:58:08;102100.94;;;22.70;39.71
24752;BME280;27246;52.376;4.628;2022-08-05T15:03:12;102099.28;;;22.81;40.88
24752;BME280;27246;52.376;4.628;2022-08-05T15:08:14;102105.81;;;22.75;41.55
24752;BME280;27246;52.376;4.628;2022-08-05T15:13:36;102114.22;;;22.63;41.53
24752;BME280;27246;52.376;4.628;2022-08-05T15:18:47;102107.88;;;22.86;41.84
24752;BME280;27246;52.376;4.628;2022-08-05T15:23:48;102112.25;;;22.82;43.26
24752;BME280;27246;52.376;4.628;2022-08-05T15:28:51;102120.38;;;22.72;40.99
24752;BME280;27246;52.376;4.628;2022-08-05T15:33:53;102123.19;;;22.72;40.76
24752;BME280;27246;52.376;4.628;2022-08-05T15:39:15;102127.53;;;23.05;42.08
24752;BME280;27246;52.376;4.628;2022-08-05T15:44:39;102133.16;;;22.68;42.02
24752;BME280;27246;52.376;4.628;2022-08-05T15:49:42;102138.78;;;22.68;41.66
24752;BME280;27246;52.376;4.628;2022-08-05T15:54:59;102138.28;;;22.71;40.56
24752;BME280;27246;52.376;4.628;2022-08-05T16:00:06;102135.41;;;22.59;39.97
24752;BME280;27246;52.376;4.628;2022-08-05T16:05:08;102138.94;;;22.54;41.11
24752;BME280;27246;52.376;4.628;2022-08-05T16:10:11;102146.91;;;22.58;42.24
24752;BME280;27246;52.376;4.628;2022-08-05T16:15:13;102152.50;;;22.58;40.98
24752;BME280;27246;52.376;4.628;2022-08-05T16:20:19;102150.31;;;22.41;40.99
24752;BME280;27246;52.376;4.628;2022-08-05T16:25:20;102161.91;;;22.26;40.49
24752;BME280;27246;52.376;4.628;2022-08-05T16:30:33;102156.59;;;21.93;40.27
24752;BME280;27246;52.376;4.628;2022-08-05T16:35:36;102155.34;;;22.14;42.40
24752;BME280;27246;52.376;4.628;2022-08-05T16:40:43;102163.63;;;22.02;42.32
24752;BME280;27246;52.376;4.628;2022-08-05T16:45:57;102148.59;;;21.90;41.94
24752;BME280;27246;52.376;4.628;2022-08-05T16:51:13;102164.94;;;22.00;42.13
24752;BME280;27246;52.376;4.628;2022-08-05T16:56:16;102167.28;;;21.77;41.71
24752;BME280;27246;52.376;4.628;2022-08-05T17:01:20;102177.19;;;21.48;41.59
24752;BME280;27246;52.376;4.628;2022-08-05T17:06:24;102176.22;;;21.93;41.10
24752;BME280;27246;52.376;4.628;2022-08-05T17:11:26;102176.16;;;22.00;40.92
24752;BME280;27246;52.376;4.628;2022-08-05T17:16:36;102171.66;;;21.99;40.95
24752;BME280;27246;52.376;4.628;2022-08-05T17:21:38;102185.59;;;21.80;40.20
24752;BME280;27246;52.376;4.628;2022-08-05T17:26:40;102183.13;;;21.65;41.56
24752;BME280;27246;52.376;4.628;2022-08-05T17:31:42;102185.69;;;21.22;40.58
24752;BME280;27246;52.376;4.628;2022-08-05T17:36:59;102182.44;;;21.31;40.02
24752;BME280;27246;52.376;4.628;2022-08-05T17:42:03;102183.97;;;21.27;39.84
24752;BME280;27246;52.376;4.628;2022-08-05T17:47:21;102185.00;;;21.40;42.04
24752;BME280;27246;52.376;4.628;2022-08-05T17:52:28;102187.78;;;21.46;41.56
24752;BME280;27246;52.376;4.628;2022-08-05T17:57:30;102198.66;;;21.23;41.50
24752;BME280;27246;52.376;4.628;2022-08-05T18:02:32;102196.91;;;21.22;41.58
24752;BME280;27246;52.376;4.628;2022-08-05T18:07:35;102206.28;;;20.95;41.22
24752;BME280;27246;52.376;4.628;2022-08-05T18:12:42;102210.91;;;20.70;41.63
24752;BME280;27246;52.376;4.628;2022-08-05T18:17:47;102213.94;;;20.68;41.13
24752;BME280;27246;52.376;4.628;2022-08-05T18:23:03;102221.91;;;20.65;42.07
24752;BME280;27246;52.376;4.628;2022-08-05T18:28:12;102235.25;;;20.76;41.73
24752;BME280;27246;52.376;4.628;2022-08-05T18:33:18;102242.78;;;20.69;40.94
24752;BME280;27246;52.376;4.628;2022-08-05T18:38:23;102251.63;;;20.59;41.09
24752;BME280;27246;52.376;4.628;2022-08-05T18:43:26;102258.31;;;20.38;41.62
24752;BME280;27246;52.376;4.628;2022-08-05T18:48:38;102248.41;;;20.22;42.89
24752;BME280;27246;52.376;4.628;2022-08-05T18:53:42;102251.81;;;20.31;43.79
24752;BME280;27246;52.376;4.628;2022-08-05T18:58:52;102245.81;;;20.14;44.23
24752;BME280;27246;52.376;4.628;2022-08-05T19:04:01;102260.00;;;20.06;44.02
24752;BME280;27246;52.376;4.628;2022-08-05T19:09:05;102267.72;;;19.84;44.73
24752;BME280;27246;52.376;4.628;2022-08-05T19:14:08;102260.63;;;19.94;44.20
24752;BME280;27246;52.376;4.628;2022-08-05T19:19:30;102266.66;;;19.91;44.17
24752;BME280;27246;52.376;4.628;2022-08-05T19:24:32;102273.97;;;19.79;44.85
24752;BME280;27246;52.376;4.628;2022-08-05T19:29:36;102275.44;;;19.68;45.07
24752;BME280;27246;52.376;4.628;2022-08-05T19:34:39;102284.03;;;19.67;45.25
24752;BME280;27246;52.376;4.628;2022-08-05T19:39:42;102290.00;;;19.57;45.14
24752;BME280;27246;52.376;4.628;2022-08-05T19:44:52;102295.50;;;19.44;45.68
24752;BME280;27246;52.376;4.628;2022-08-05T19:49:58;102307.53;;;19.37;45.77
24752;BME280;27246;52.376;4.628;2022-08-05T19:55:02;102312.25;;;19.30;45.37
24752;BME280;27246;52.376;4.628;2022-08-05T20:00:24;102315.44;;;19.27;44.75
24752;BME280;27246;52.376;4.628;2022-08-05T20:05:26;102319.06;;;19.21;44.87
24752;BME280;27246;52.376;4.628;2022-08-05T20:10:52;102325.47;;;19.15;44.84
24752;BME280;27246;52.376;4.628;2022-08-05T20:15:55;102337.97;;;19.19;44.60
24752;BME280;27246;52.376;4.628;2022-08-05T20:20:59;102350.13;;;19.05;44.73
24752;BME280;27246;52.376;4.628;2022-08-05T20:26:02;102334.44;;;19.04;45.20
24752;BME280;27246;52.376;4.628;2022-08-05T20:31:10;102345.50;;;18.90;45.49
24752;BME280;27246;52.376;4.628;2022-08-05T20:36:13;102357.22;;;18.79;46.02
24752;BME280;27246;52.376;4.628;2022-08-05T20:41:18;102355.72;;;18.76;46.31
24752;BME280;27246;52.376;4.628;2022-08-05T20:46:36;102359.91;;;18.66;46.68
24752;BME280;27246;52.376;4.628;2022-08-05T20:51:38;102365.00;;;18.62;46.99
24752;BME280;27246;52.376;4.628;2022-08-05T20:56:42;102369.00;;;18.53;47.32
24752;BME280;27246;52.376;4.628;2022-08-05T21:01:47;102369.22;;;18.51;47.52
24752;BME280;27246;52.376;4.628;2022-08-05T21:06:53;102367.44;;;18.44;48.14
24752;BME280;27246;52.376;4.628;2022-08-05T21:11:56;102363.97;;;18.42;48.43
24752;BME280;27246;52.376;4.628;2022-08-05T21:17:11;102369.75;;;18.40;48.92
24752;BME280;27246;52.376;4.628;2022-08-05T21:22:17;102370.34;;;18.35;49.04
24752;BME280;27246;52.376;4.628;2022-08-05T21:27:25;102373.41;;;18.41;49.29
24752;BME280;27246;52.376;4.628;2022-08-05T21:32:39;102375.94;;;18.35;49.45
24752;BME280;27246;52.376;4.628;2022-08-05T21:37:43;102381.03;;;18.32;49.48
24752;BME280;27246;52.376;4.628;2022-08-05T21:42:53;102378.19;;;18.25;50.08
24752;BME280;27246;52.376;4.628;2022-08-05T21:47:59;102383.53;;;18.27;50.30
24752;BME280;27246;52.376;4.628;2022-08-05T21:53:01;102380.22;;;18.16;50.76
24752;BME280;27246;52.376;4.628;2022-08-05T21:58:17;102378.50;;;18.15;50.78
24752;BME280;27246;52.376;4.628;2022-08-05T22:03:19;102379.78;;;18.13;51.12
24752;BME280;27246;52.376;4.628;2022-08-05T22:08:41;102388.06;;;18.06;51.35
24752;BME280;27246;52.376;4.628;2022-08-05T22:13:43;102391.81;;;17.98;51.69
24752;BME280;27246;52.376;4.628;2022-08-05T22:19:05;102389.25;;;17.97;51.91
24752;BME280;27246;52.376;4.628;2022-08-05T22:24:26;102396.00;;;17.88;52.09
24752;BME280;27246;52.376;4.628;2022-08-05T22:29:53;102402.34;;;17.82;52.44
24752;BME280;27246;52.376;4.628;2022-08-05T22:34:56;102404.63;;;17.78;52.77
24752;BME280;27246;52.376;4.628;2022-08-05T22:40:01;102403.09;;;17.75;53.01
24752;BME280;27246;52.376;4.628;2022-08-05T22:45:24;102394.44;;;17.70;53.03
24752;BME280;27246;52.376;4.628;2022-08-05T22:50:27;102405.50;;;17.64;53.65
24752;BME280;27246;52.376;4.628;2022-08-05T22:55:29;102411.25;;;17.62;54.11
24752;BME280;27246;52.376;4.628;2022-08-05T23:00:51;102406.56;;;17.63;54.24
24752;BME280;27246;52.376;4.628;2022-08-05T23:05:57;102418.97;;;17.60;54.07
24752;BME280;27246;52.376;4.628;2022-08-05T23:11:01;102426.38;;;17.53;53.45
24752;BME280;27246;52.376;4.628;2022-08-05T23:16:03;102435.78;;;17.52;52.98
24752;BME280;27246;52.376;4.628;2022-08-05T23:21:05;102441.34;;;17.52;52.99
24752;BME280;27246;52.376;4.628;2022-08-05T23:26:10;102442.69;;;17.41;53.32
24752;BME280;27246;52.376;4.628;2022-08-05T23:31:12;102447.91;;;17.44;53.59
24752;BME280;27246;52.376;4.628;2022-08-05T23:36:18;102445.50;;;17.41;53.55
24752;BME280;27246;52.376;4.628;2022-08-05T23:41:19;102459.81;;;17.38;53.99
24752;BME280;27246;52.376;4.628;2022-08-05T23:46:22;102457.97;;;17.30;54.34
24752;BME280;27246;52.376;4.628;2022-08-05T23:51:23;102459.19;;;17.28;54.61
24752;BME280;27246;52.376;4.628;2022-08-05T23:56:26;102461.03;;;17.21;54.69
